createdAt,value
2019-03-08T00:00:25.299Z,98262.00
2019-03-08T00:01:28.314Z,98253.14
2019-03-08T00:02:29.479Z,98259.33
2019-03-08T00:03:30.590Z,98257.69
2019-03-08T00:04:31.699Z,98255.00
2019-03-08T00:05:32.812Z,98245.34
2019-03-08T00:06:33.930Z,98246.67
2019-03-08T00:07:35.056Z,98238.66
2019-03-08T00:08:36.280Z,98235.45
2019-03-08T00:09:37.606Z,98234.64
2019-03-08T00:10:38.734Z,98233.30
2019-03-08T00:11:39.848Z,98235.45
2019-03-08T00:12:41.113Z,98232.77
2019-03-08T00:13:42.227Z,98232.47
2019-03-08T00:14:43.362Z,98227.95
2019-03-08T00:15:44.576Z,98227.42
2019-03-08T00:16:45.689Z,98231.97
2019-03-08T00:17:46.816Z,98226.08
2019-03-08T00:18:47.936Z,98231.44
2019-03-08T00:19:49.444Z,98229.30
2019-03-08T00:20:50.669Z,98226.08
2019-03-08T00:21:51.782Z,98223.11
2019-03-08T00:22:52.937Z,98221.27
2019-03-08T00:23:54.052Z,98222.91
2019-03-08T00:24:55.169Z,98223.94
2019-03-08T00:25:56.386Z,98219.93
2019-03-08T00:26:57.608Z,98218.59
2019-03-08T00:27:58.763Z,98213.24
2019-03-08T00:29:00.285Z,98209.23
2019-03-08T00:30:01.395Z,98203.05
2019-03-08T00:31:02.509Z,98206.86
2019-03-08T00:32:03.719Z,98202.85
2019-03-08T00:33:04.844Z,98201.52
2019-03-08T00:34:06.056Z,98193.19
2019-03-08T00:35:07.965Z,98197.80
2019-03-08T00:36:09.075Z,98194.29
2019-03-08T00:37:10.200Z,98189.47
2019-03-08T00:38:11.728Z,98192.45
2019-03-08T00:39:12.952Z,98191.62
2019-03-08T00:40:14.064Z,98186.57
2019-03-08T00:41:15.172Z,98191.42
2019-03-08T00:42:16.445Z,98183.40
2019-03-08T00:43:17.575Z,98183.70
2019-03-08T00:44:18.697Z,98185.54
2019-03-08T00:45:19.808Z,98181.03
2019-03-08T00:46:20.921Z,98181.83
2019-03-08T00:47:22.066Z,98179.99
2019-03-08T00:48:23.299Z,98177.63
2019-03-08T00:49:24.417Z,98181.64
2019-03-08T00:50:25.530Z,98167.95
2019-03-08T00:51:26.644Z,98170.94
2019-03-08T00:52:28.187Z,98165.28
2019-03-08T00:53:29.317Z,98167.12
2019-03-08T00:54:30.437Z,98175.38
2019-03-08T00:55:31.548Z,98172.16
2019-03-08T00:56:32.668Z,98166.81
2019-03-08T00:57:34.069Z,98165.17
2019-03-08T00:58:35.199Z,98170.52
2019-03-08T00:59:36.313Z,98162.20
2019-03-08T01:00:37.625Z,98160.05
2019-03-08T01:01:38.860Z,98159.22
2019-03-08T01:02:40.076Z,98153.67
2019-03-08T01:03:41.304Z,98156.23
2019-03-08T01:04:42.422Z,98162.42
2019-03-08T01:05:43.646Z,98158.41
2019-03-08T01:06:44.965Z,98162.13
2019-03-08T01:07:46.068Z,98160.45
2019-03-08T01:08:47.317Z,98162.31
2019-03-08T01:09:48.609Z,98160.14
2019-03-08T01:10:49.727Z,98156.13
2019-03-08T01:11:50.933Z,98150.48
2019-03-08T01:12:52.147Z,98149.64
2019-03-08T01:13:53.276Z,98147.80
2019-03-08T01:14:54.388Z,98147.80
2019-03-08T01:15:55.604Z,98146.47
2019-03-08T01:16:57.118Z,98144.30
2019-03-08T01:17:58.330Z,98142.95
2019-03-08T01:18:59.778Z,98139.28
2019-03-08T01:20:00.891Z,98140.47
2019-03-08T01:21:02.113Z,98135.43
2019-03-08T01:22:03.220Z,98135.13
2019-03-08T01:23:04.675Z,98129.28
2019-03-08T01:24:05.917Z,98128.74
2019-03-08T01:25:08.207Z,98126.07
2019-03-08T01:26:09.520Z,98125.07
2019-03-08T01:27:10.645Z,98125.07
2019-03-08T01:28:11.855Z,98123.39
2019-03-08T01:29:13.011Z,98126.41
2019-03-08T01:30:14.123Z,98124.23
2019-03-08T01:31:15.233Z,98115.70
2019-03-08T01:32:16.348Z,98117.05
2019-03-08T01:33:17.462Z,98120.02
2019-03-08T01:34:18.690Z,98121.06
2019-03-08T01:35:20.010Z,98117.05
2019-03-08T01:36:21.120Z,98113.88
2019-03-08T01:37:22.233Z,98115.70
2019-03-08T01:38:23.346Z,98112.00
2019-03-08T01:39:24.479Z,98113.88
2019-03-08T01:40:27.510Z,98109.86
2019-03-08T01:41:28.601Z,98110.66
2019-03-08T01:42:29.756Z,98111.20
2019-03-08T01:43:30.990Z,98103.48
2019-03-08T01:44:33.865Z,98103.98
2019-03-08T01:45:35.152Z,98101.30
2019-03-08T01:46:36.260Z,98105.31
2019-03-08T01:47:37.380Z,98106.65
2019-03-08T01:48:38.496Z,98107.79
2019-03-08T01:49:39.620Z,98099.47
2019-03-08T01:50:40.739Z,98100.27
2019-03-08T01:51:41.848Z,98098.43
2019-03-08T01:52:42.960Z,98097.39
2019-03-08T01:53:44.074Z,98094.72
2019-03-08T01:54:45.379Z,98101.94
2019-03-08T01:55:46.581Z,98090.20
2019-03-08T01:56:47.713Z,98092.88
2019-03-08T01:57:48.929Z,98085.66
2019-03-08T01:58:50.041Z,98097.50
2019-03-08T01:59:51.272Z,98087.30
2019-03-08T02:00:52.480Z,98081.95
2019-03-08T02:01:53.594Z,98089.98
2019-03-08T02:02:54.710Z,98083.83
2019-03-08T02:03:55.830Z,98083.59
2019-03-08T02:04:57.383Z,98079.28
2019-03-08T02:05:58.590Z,98079.81
2019-03-08T02:06:59.706Z,98077.44
2019-03-08T02:08:00.820Z,98075.80
2019-03-08T02:09:02.330Z,98072.29
2019-03-08T02:10:06.768Z,98077.14
2019-03-08T02:11:07.892Z,98071.48
2019-03-08T02:12:09.009Z,98066.94
2019-03-08T02:13:10.119Z,98066.14
2019-03-08T02:14:11.230Z,98064.80
2019-03-08T02:15:14.356Z,98056.14
2019-03-08T02:16:15.475Z,98058.81
2019-03-08T02:17:16.590Z,98057.70
2019-03-08T02:18:17.823Z,98057.70
2019-03-08T02:19:18.926Z,98052.52
2019-03-08T02:20:21.355Z,98052.52
2019-03-08T02:21:22.464Z,98056.03
2019-03-08T02:22:23.715Z,98051.72
2019-03-08T02:23:24.799Z,98052.52
2019-03-08T02:24:26.224Z,98045.03
2019-03-08T02:25:27.880Z,98046.88
2019-03-08T02:26:28.993Z,98037.02
2019-03-08T02:27:30.112Z,98036.70
2019-03-08T02:28:31.228Z,98035.37
2019-03-08T02:29:32.344Z,98036.17
2019-03-08T02:30:33.475Z,98032.70
2019-03-08T02:31:34.595Z,98031.36
2019-03-08T02:32:35.900Z,98021.47
2019-03-08T02:33:37.119Z,98026.31
2019-03-08T02:34:38.231Z,98020.66
2019-03-08T02:35:39.389Z,98017.45
2019-03-08T02:36:40.504Z,98013.98
2019-03-08T02:37:41.635Z,98015.62
2019-03-08T02:38:42.855Z,98011.07
2019-03-08T02:39:43.975Z,98005.95
2019-03-08T02:40:45.217Z,98006.26
2019-03-08T02:41:46.334Z,98009.23
2019-03-08T02:42:47.588Z,98004.39
2019-03-08T02:43:48.906Z,98002.55
2019-03-08T02:44:50.025Z,97999.57
2019-03-08T02:45:51.259Z,97992.88
2019-03-08T02:46:52.478Z,97992.88
2019-03-08T02:47:53.588Z,97993.69
2019-03-08T02:48:54.699Z,97990.52
2019-03-08T02:49:55.813Z,97985.66
2019-03-08T02:50:57.075Z,97986.83
2019-03-08T02:51:58.292Z,97984.16
2019-03-08T02:52:59.507Z,97983.92
2019-03-08T02:54:00.720Z,97975.91
2019-03-08T02:55:01.832Z,97982.39
2019-03-08T02:56:02.960Z,97978.91
2019-03-08T02:57:04.172Z,97974.66
2019-03-08T02:58:05.283Z,97974.16
2019-03-08T02:59:06.400Z,97970.16
2019-03-08T03:00:10.315Z,97964.80
2019-03-08T03:01:11.443Z,97970.45
2019-03-08T03:02:12.661Z,97966.44
2019-03-08T03:03:15.288Z,97965.41
2019-03-08T03:04:16.394Z,97964.06
2019-03-08T03:05:17.512Z,97962.43
2019-03-08T03:06:18.739Z,97962.94
2019-03-08T03:07:19.857Z,97961.39
2019-03-08T03:08:20.969Z,97953.07
2019-03-08T03:09:22.089Z,97952.77
2019-03-08T03:10:23.217Z,97954.41
2019-03-08T03:11:24.424Z,97951.94
2019-03-08T03:12:25.576Z,97947.42
2019-03-08T03:13:26.988Z,97945.78
2019-03-08T03:14:28.209Z,97944.74
2019-03-08T03:15:29.428Z,97940.44
2019-03-08T03:16:30.559Z,97947.62
2019-03-08T03:17:31.664Z,97940.94
2019-03-08T03:18:32.777Z,97940.44
2019-03-08T03:19:33.900Z,97935.78
2019-03-08T03:20:35.011Z,97937.66
2019-03-08T03:21:36.137Z,97935.48
2019-03-08T03:22:37.454Z,97935.69
2019-03-08T03:23:38.582Z,97928.16
2019-03-08T03:24:39.688Z,97932.72
2019-03-08T03:25:40.802Z,97927.87
2019-03-08T03:26:42.036Z,97927.56
2019-03-08T03:27:44.782Z,97929.44
2019-03-08T03:28:45.896Z,97922.95
2019-03-08T03:29:47.012Z,97931.81
2019-03-08T03:30:48.129Z,97923.25
2019-03-08T03:31:49.260Z,97920.28
2019-03-08T03:32:50.383Z,97920.28
2019-03-08T03:33:51.493Z,97915.97
2019-03-08T03:34:52.604Z,97918.14
2019-03-08T03:35:53.719Z,97917.30
2019-03-08T03:36:55.044Z,97914.93
2019-03-08T03:37:56.152Z,97917.61
2019-03-08T03:38:57.270Z,97911.45
2019-03-08T03:39:58.384Z,97911.95
2019-03-08T03:40:59.506Z,97906.61
2019-03-08T03:42:00.929Z,97909.81
2019-03-08T03:43:02.188Z,97904.97
2019-03-08T03:44:03.397Z,97906.11
2019-03-08T03:45:07.108Z,97903.13
2019-03-08T03:46:08.230Z,97905.27
2019-03-08T03:47:09.387Z,97904.77
2019-03-08T03:48:10.500Z,97902.89
2019-03-08T03:49:11.608Z,97898.89
2019-03-08T03:50:13.727Z,97895.91
2019-03-08T03:51:15.039Z,97892.94
2019-03-08T03:52:16.175Z,97898.08
2019-03-08T03:53:17.284Z,97898.08
2019-03-08T03:54:18.401Z,97898.89
2019-03-08T03:55:19.516Z,97893.84
2019-03-08T03:56:20.730Z,97896.81
2019-03-08T03:57:22.023Z,97895.48
2019-03-08T03:58:23.133Z,97891.47
2019-03-08T03:59:24.249Z,97889.39
2019-03-08T04:00:25.462Z,97885.91
2019-03-08T04:01:31.570Z,97887.05
2019-03-08T04:02:32.808Z,97886.02
2019-03-08T04:03:33.921Z,97886.55
2019-03-08T04:04:35.041Z,97879.33
2019-03-08T04:05:36.258Z,97881.80
2019-03-08T04:06:37.371Z,97881.30
2019-03-08T04:07:38.517Z,97884.27
2019-03-08T04:08:39.633Z,97880.76
2019-03-08T04:09:40.744Z,97877.05
2019-03-08T04:10:41.872Z,97880.56
2019-03-08T04:11:43.410Z,97881.36
2019-03-08T04:12:44.863Z,97881.36
2019-03-08T04:13:45.979Z,97877.14
2019-03-08T04:14:47.091Z,97871.80
2019-03-08T04:15:48.404Z,97869.92
2019-03-08T04:16:49.517Z,97874.77
2019-03-08T04:17:50.674Z,97874.47
2019-03-08T04:18:51.788Z,97869.42
2019-03-08T04:19:53.008Z,97875.06
2019-03-08T04:20:54.425Z,97873.73
2019-03-08T04:21:55.541Z,97871.05
2019-03-08T04:22:56.797Z,97875.06
2019-03-08T04:23:57.913Z,97868.38
2019-03-08T04:24:59.137Z,97868.88
2019-03-08T04:26:00.248Z,97868.58
2019-03-08T04:27:01.366Z,97867.25
2019-03-08T04:28:02.521Z,97875.27
2019-03-08T04:29:03.654Z,97872.09
2019-03-08T04:30:11.278Z,97870.76
2019-03-08T04:31:12.684Z,97876.11
2019-03-08T04:32:13.793Z,97872.09
2019-03-08T04:33:15.138Z,97872.39
2019-03-08T04:34:16.248Z,97873.94
2019-03-08T04:35:17.389Z,97873.43
2019-03-08T04:36:18.472Z,97867.78
2019-03-08T04:37:19.702Z,97872.00
2019-03-08T04:38:20.861Z,97870.16
2019-03-08T04:39:21.971Z,97866.95
2019-03-08T04:40:23.443Z,97865.31
2019-03-08T04:41:24.589Z,97863.17
2019-03-08T04:42:25.692Z,97869.86
2019-03-08T04:43:26.856Z,97865.02
2019-03-08T04:44:27.971Z,97865.55
2019-03-08T04:45:29.084Z,97861.53
2019-03-08T04:46:30.204Z,97857.83
2019-03-08T04:47:31.318Z,97855.95
2019-03-08T04:48:32.475Z,97853.28
2019-03-08T04:49:33.607Z,97852.77
2019-03-08T04:50:35.020Z,97848.77
2019-03-08T04:51:36.237Z,97848.77
2019-03-08T04:52:37.348Z,97847.92
2019-03-08T04:53:38.476Z,97846.59
2019-03-08T04:54:39.595Z,97848.97
2019-03-08T04:55:40.706Z,97848.16
2019-03-08T04:56:41.819Z,97842.81
2019-03-08T04:57:42.932Z,97849.50
2019-03-08T04:58:44.056Z,97846.83
2019-03-08T04:59:45.377Z,97841.98
2019-03-08T05:00:46.610Z,97839.01
2019-03-08T05:01:47.824Z,97841.48
2019-03-08T05:02:48.933Z,97838.27
2019-03-08T05:03:50.055Z,97833.45
2019-03-08T05:04:51.172Z,97835.09
2019-03-08T05:05:52.285Z,97832.72
2019-03-08T05:06:53.399Z,97831.88
2019-03-08T05:07:54.621Z,97828.17
2019-03-08T05:08:56.225Z,97826.33
2019-03-08T05:09:57.341Z,97822.61
2019-03-08T05:10:58.470Z,97818.90
2019-03-08T05:11:59.718Z,97820.23
2019-03-08T05:13:00.834Z,97815.69
2019-03-08T05:14:02.091Z,97825.05
2019-03-08T05:15:04.605Z,97818.90
2019-03-08T05:16:05.717Z,97816.73
2019-03-08T05:17:06.840Z,97822.38
2019-03-08T05:18:08.050Z,97812.22
2019-03-08T05:19:09.301Z,97813.25
2019-03-08T05:20:10.610Z,97814.89
2019-03-08T05:21:11.726Z,97811.17
2019-03-08T05:22:12.838Z,97817.03
2019-03-08T05:23:13.949Z,97805.83
2019-03-08T05:24:15.277Z,97807.46
2019-03-08T05:25:16.389Z,97805.08
2019-03-08T05:26:17.509Z,97805.08
2019-03-08T05:27:18.761Z,97808.36
2019-03-08T05:28:20.276Z,97799.50
2019-03-08T05:29:24.193Z,97805.14
2019-03-08T05:30:24.460Z,97800.63
2019-03-08T05:31:25.576Z,97798.25
2019-03-08T05:32:26.693Z,97796.91
2019-03-08T05:33:27.802Z,97797.72
2019-03-08T05:34:29.054Z,97798.02
2019-03-08T05:35:30.173Z,97798.84
2019-03-08T05:36:31.289Z,97795.34
2019-03-08T05:37:32.703Z,97794.30
2019-03-08T05:38:33.817Z,97796.67
2019-03-08T05:39:34.953Z,97792.16
2019-03-08T05:40:36.070Z,97795.88
2019-03-08T05:41:37.184Z,97793.20
2019-03-08T05:42:38.299Z,97792.37
2019-03-08T05:43:39.528Z,97789.98
2019-03-08T05:44:40.788Z,97787.55
2019-03-08T05:45:41.904Z,97788.89
2019-03-08T05:46:43.226Z,97786.52
2019-03-08T05:47:44.342Z,97792.07
2019-03-08T05:48:45.560Z,97784.58
2019-03-08T05:49:46.898Z,97786.42
2019-03-08T05:50:48.009Z,97782.95
2019-03-08T05:51:49.126Z,97778.63
2019-03-08T05:52:50.252Z,97778.63
2019-03-08T05:53:51.369Z,97772.98
2019-03-08T05:54:52.509Z,97783.69
2019-03-08T05:55:53.720Z,97778.34
2019-03-08T05:56:54.833Z,97775.87
2019-03-08T05:57:55.949Z,97772.69
2019-03-08T05:58:57.071Z,97778.04
2019-03-08T05:59:58.293Z,97771.56
2019-03-08T06:00:59.408Z,97772.89
2019-03-08T06:02:00.522Z,97768.59
2019-03-08T06:03:02.287Z,97773.13
2019-03-08T06:04:03.404Z,97778.25
2019-03-08T06:05:06.133Z,97772.30
2019-03-08T06:06:07.552Z,97776.31
2019-03-08T06:07:08.668Z,97771.80
2019-03-08T06:08:09.780Z,97771.80
2019-03-08T06:09:10.892Z,97774.77
2019-03-08T06:10:26.736Z,97770.02
2019-03-08T06:11:27.861Z,97765.77
2019-03-08T06:12:28.988Z,97766.16
2019-03-08T06:13:30.104Z,97766.21
2019-03-08T06:14:31.217Z,97769.27
2019-03-08T06:15:32.339Z,97765.95
2019-03-08T06:16:33.455Z,97763.62
2019-03-08T06:17:34.573Z,97763.27
2019-03-08T06:18:35.790Z,97762.37
2019-03-08T06:19:37.007Z,97755.02
2019-03-08T06:20:38.138Z,97755.22
2019-03-08T06:21:39.249Z,97755.15
2019-03-08T06:22:40.365Z,97755.58
2019-03-08T06:23:41.481Z,97757.14
2019-03-08T06:24:42.591Z,97757.28
2019-03-08T06:25:43.717Z,97759.85
2019-03-08T06:26:44.930Z,97753.65
2019-03-08T06:27:46.058Z,97753.84
2019-03-08T06:28:47.161Z,97756.14
2019-03-08T06:29:48.276Z,97749.86
2019-03-08T06:30:49.398Z,97752.46
2019-03-08T06:31:50.513Z,97748.03
2019-03-08T06:32:51.624Z,97753.81
2019-03-08T06:33:52.732Z,97747.02
2019-03-08T06:34:53.991Z,97752.80
2019-03-08T06:35:55.071Z,97749.73
2019-03-08T06:36:56.189Z,97752.83
2019-03-08T06:37:57.301Z,97752.44
2019-03-08T06:38:58.411Z,97749.05
2019-03-08T06:39:59.562Z,97752.14
2019-03-08T06:41:00.760Z,97748.23
2019-03-08T06:42:01.872Z,97746.78
2019-03-08T06:43:03.398Z,97750.92
2019-03-08T06:44:04.608Z,97753.42
2019-03-08T06:45:09.120Z,97751.91
2019-03-08T06:46:10.244Z,97749.05
2019-03-08T06:47:11.362Z,97752.61
2019-03-08T06:48:12.488Z,97756.16
2019-03-08T06:49:13.604Z,97751.95
2019-03-08T06:50:14.713Z,97755.22
2019-03-08T06:51:16.012Z,97756.63
2019-03-08T06:52:17.129Z,97751.59
2019-03-08T06:53:18.246Z,97753.52
2019-03-08T06:54:19.869Z,97756.49
2019-03-08T06:55:20.980Z,97749.56
2019-03-08T06:56:22.294Z,97750.69
2019-03-08T06:57:23.408Z,97752.61
2019-03-08T06:58:29.191Z,97748.88
2019-03-08T06:59:32.209Z,97752.14
2019-03-08T07:00:47.364Z,97744.09
2019-03-08T07:01:48.593Z,97740.06
2019-03-08T07:02:49.804Z,97746.77
2019-03-08T07:03:50.922Z,97744.66
2019-03-08T07:04:52.033Z,97751.66
2019-03-08T07:05:53.250Z,97746.30
2019-03-08T07:06:54.848Z,97748.98
2019-03-08T07:07:56.064Z,97744.66
2019-03-08T07:08:57.182Z,97745.75
2019-03-08T07:09:58.298Z,97746.88
2019-03-08T07:10:59.422Z,97744.99
2019-03-08T07:12:00.707Z,97744.19
2019-03-08T07:13:03.624Z,97740.16
2019-03-08T07:14:04.840Z,97741.80
2019-03-08T07:15:06.181Z,97741.80
2019-03-08T07:16:13.291Z,97738.57
2019-03-08T07:17:10.796Z,97742.38
2019-03-08T07:18:13.096Z,97734.33
2019-03-08T07:19:14.428Z,97734.61
2019-03-08T07:20:29.564Z,97734.36
2019-03-08T07:21:32.591Z,97732.22
2019-03-08T07:22:44.922Z,97736.82
2019-03-08T07:23:47.939Z,97737.63
2019-03-08T07:24:50.959Z,97730.41
2019-03-08T07:26:02.897Z,97730.63
2019-03-08T07:27:14.919Z,97731.74
2019-03-08T07:28:23.861Z,97737.63
2019-03-08T07:29:29.762Z,97727.72
2019-03-08T07:30:32.789Z,97733.59
2019-03-08T07:31:38.346Z,97734.14
2019-03-08T07:32:57.769Z,97728.23
2019-03-08T07:34:06.338Z,97729.06
2019-03-08T07:35:26.133Z,97725.25
2019-03-08T07:36:34.957Z,97728.77
2019-03-08T07:37:37.976Z,97730.11
2019-03-08T07:38:57.621Z,97727.14
2019-03-08T07:40:00.648Z,97726.59
2019-03-08T07:41:03.669Z,97724.20
2019-03-08T07:42:09.214Z,97730.11
2019-03-08T07:43:12.232Z,97721.77
2019-03-08T07:44:15.263Z,97730.11
2019-03-08T07:45:34.680Z,97723.69
2019-03-08T07:46:37.715Z,97724.48
2019-03-08T07:47:40.739Z,97721.30
2019-03-08T07:48:43.760Z,97715.41
2019-03-08T07:49:52.558Z,97710.56
2019-03-08T07:50:58.156Z,97713.53
2019-03-08T07:52:04.204Z,97709.22
2019-03-08T07:53:19.373Z,97704.90
2019-03-08T07:54:22.397Z,97706.24
2019-03-08T07:55:25.413Z,97709.44
2019-03-08T07:56:43.564Z,97709.44
2019-03-08T07:58:01.558Z,97714.23
2019-03-08T07:59:04.573Z,97715.28
2019-03-08T08:00:11.192Z,97720.61
2019-03-08T08:01:16.920Z,97721.37
2019-03-08T08:02:22.777Z,97718.11
2019-03-08T08:03:28.583Z,97718.34
2019-03-08T08:04:37.152Z,97717.54
2019-03-08T08:05:46.246Z,97713.22
2019-03-08T08:06:49.265Z,97716.13
2019-03-08T08:07:52.295Z,97725.01
2019-03-08T08:08:55.316Z,97716.67
2019-03-08T08:09:58.334Z,97713.16
2019-03-08T08:11:07.257Z,97716.67
2019-03-08T08:12:22.571Z,97721.20
2019-03-08T08:13:28.585Z,97716.38
2019-03-08T08:14:40.692Z,97716.67
2019-03-08T08:15:46.216Z,97719.86
2019-03-08T08:17:07.485Z,97719.06
2019-03-08T08:18:27.553Z,97712.36
2019-03-08T08:19:36.232Z,97715.26
2019-03-08T08:20:44.795Z,97715.04
2019-03-08T08:22:04.612Z,97713.41
2019-03-08T08:23:16.485Z,97719.06
2019-03-08T08:24:19.515Z,97718.77
2019-03-08T08:25:39.026Z,97717.72
2019-03-08T08:26:44.550Z,97720.41
2019-03-08T08:28:05.798Z,97718.52
2019-03-08T08:29:34.546Z,97713.98
2019-03-08T08:30:30.196Z,97723.38
2019-03-08T08:31:33.415Z,97716.95
2019-03-08T08:32:53.146Z,97727.70
2019-03-08T08:34:12.941Z,97721.78
2019-03-08T08:35:15.965Z,97727.98
2019-03-08T08:36:35.383Z,97719.94
2019-03-08T08:37:38.406Z,97720.73
2019-03-08T08:38:56.281Z,97722.91
2019-03-08T08:39:59.341Z,97724.75
2019-03-08T08:41:02.361Z,97727.73
2019-03-08T08:42:11.013Z,97729.08
2019-03-08T08:43:31.984Z,97722.65
2019-03-08T08:44:35.020Z,97721.85
2019-03-08T08:45:46.862Z,97719.17
2019-03-08T08:46:52.798Z,97727.80
2019-03-08T08:47:55.812Z,97719.45
2019-03-08T08:49:07.418Z,97721.09
2019-03-08T08:50:22.271Z,97726.45
2019-03-08T08:51:41.635Z,97719.20
2019-03-08T08:53:02.573Z,97724.06
2019-03-08T08:54:17.448Z,97726.45
2019-03-08T08:55:29.608Z,97721.59
2019-03-08T08:56:48.986Z,97721.85
2019-03-08T08:57:54.606Z,97728.27
2019-03-08T08:59:09.979Z,97725.81
2019-03-08T09:00:32.886Z,97726.35
2019-03-08T09:01:44.743Z,97729.80
2019-03-08T09:02:47.761Z,97726.53
2019-03-08T09:03:53.536Z,97732.95
2019-03-08T09:05:13.132Z,97727.45
2019-03-08T09:06:16.159Z,97732.66
2019-03-08T09:07:31.097Z,97735.86
2019-03-08T09:08:47.429Z,97733.69
2019-03-08T09:10:05.696Z,97735.03
2019-03-08T09:11:08.833Z,97730.71
2019-03-08T09:12:11.866Z,97728.57
2019-03-08T09:13:20.476Z,97723.42
2019-03-08T09:14:32.596Z,97728.28
2019-03-08T09:15:41.167Z,97727.73
2019-03-08T09:16:46.873Z,97726.39
2019-03-08T09:17:52.772Z,97728.79
2019-03-08T09:18:55.748Z,97723.67
2019-03-08T09:19:59.372Z,97726.94
2019-03-08T09:21:05.495Z,97724.55
2019-03-08T09:22:11.281Z,97724.55
2019-03-08T09:23:32.413Z,97721.32
2019-03-08T09:24:38.360Z,97728.32
2019-03-08T09:25:53.023Z,97731.00
2019-03-08T09:26:56.026Z,97725.63
2019-03-08T09:27:59.053Z,97729.37
2019-03-08T09:29:02.070Z,97725.89
2019-03-08T09:30:08.688Z,97730.20
2019-03-08T09:31:14.209Z,97732.88
2019-03-08T09:32:17.243Z,97730.20
2019-03-08T09:33:20.266Z,97735.56
2019-03-08T09:34:29.448Z,97738.55
2019-03-08T09:35:35.601Z,97729.15
2019-03-08T09:36:41.816Z,97738.32
2019-03-08T09:37:50.654Z,97729.73
2019-03-08T09:38:56.538Z,97738.32
2019-03-08T09:40:05.426Z,97738.32
2019-03-08T09:41:08.439Z,97739.95
2019-03-08T09:42:11.458Z,97738.61
2019-03-08T09:43:14.578Z,97738.61
2019-03-08T09:44:20.116Z,97739.70
2019-03-08T09:45:23.274Z,97740.53
2019-03-08T09:46:43.102Z,97741.88
2019-03-08T09:47:46.129Z,97738.14
2019-03-08T09:48:52.036Z,97743.50
2019-03-08T09:50:03.646Z,97742.45
2019-03-08T09:51:09.360Z,97745.14
2019-03-08T09:52:12.378Z,97745.90
2019-03-08T09:53:20.985Z,97744.02
2019-03-08T09:54:26.813Z,97738.65
2019-03-08T09:55:29.830Z,97741.33
2019-03-08T09:56:32.844Z,97739.19
2019-03-08T09:57:35.858Z,97742.92
2019-03-08T09:58:38.880Z,97740.24
2019-03-08T09:59:44.504Z,97740.24
2019-03-08T10:00:53.281Z,97743.98
2019-03-08T10:02:05.173Z,97742.63
2019-03-08T10:03:11.065Z,97742.63
2019-03-08T10:04:14.095Z,97744.48
2019-03-08T10:05:17.440Z,97743.69
2019-03-08T10:06:32.965Z,97741.01
2019-03-08T10:07:38.825Z,97738.32
2019-03-08T10:08:42.040Z,97738.03
2019-03-08T10:09:45.063Z,97741.73
2019-03-08T10:10:50.852Z,97743.08
2019-03-08T10:12:05.737Z,97747.10
2019-03-08T10:13:17.556Z,97743.08
2019-03-08T10:14:29.998Z,97745.47
2019-03-08T10:15:39.246Z,97751.13
2019-03-08T10:16:58.010Z,97750.84
2019-03-08T10:18:17.713Z,97751.89
2019-03-08T10:19:20.728Z,97750.03
2019-03-08T10:20:32.370Z,97752.94
2019-03-08T10:21:44.429Z,97746.48
2019-03-08T10:22:59.497Z,97750.25
2019-03-08T10:24:03.006Z,97747.28
2019-03-08T10:25:19.016Z,97752.36
2019-03-08T10:26:22.093Z,97752.36
2019-03-08T10:27:25.106Z,97755.88
2019-03-08T10:28:28.125Z,97754.28
2019-03-08T10:29:31.148Z,97748.11
2019-03-08T10:30:39.718Z,97753.23
2019-03-08T10:31:59.194Z,97752.72
2019-03-08T10:33:18.683Z,97753.52
2019-03-08T10:34:24.405Z,97749.49
2019-03-08T10:35:39.076Z,97754.35
2019-03-08T10:36:48.897Z,97754.35
2019-03-08T10:38:00.528Z,97757.55
2019-03-08T10:39:12.563Z,97756.20
2019-03-08T10:40:31.976Z,97757.83
2019-03-08T10:41:46.852Z,97762.41
2019-03-08T10:42:52.381Z,97764.25
2019-03-08T10:43:55.401Z,97761.57
2019-03-08T10:44:58.436Z,97764.25
2019-03-08T10:46:18.038Z,97768.28
2019-03-08T10:47:21.053Z,97768.28
2019-03-08T10:48:26.741Z,97771.25
2019-03-08T10:49:29.767Z,97771.25
2019-03-08T10:50:51.671Z,97771.58
2019-03-08T10:52:00.362Z,97772.59
2019-03-08T10:53:03.371Z,97782.06
2019-03-08T10:54:12.571Z,97775.05
2019-03-08T10:55:24.603Z,97776.94
2019-03-08T10:56:39.598Z,97780.14
2019-03-08T10:57:45.271Z,97779.30
2019-03-08T10:59:05.286Z,97783.03
2019-03-08T11:00:12.222Z,97776.03
2019-03-08T11:01:30.381Z,97778.68
2019-03-08T11:02:45.027Z,97774.66
2019-03-08T11:03:53.794Z,97777.56
2019-03-08T11:05:02.388Z,97775.92
2019-03-08T11:06:17.249Z,97773.78
2019-03-08T11:07:22.780Z,97776.98
2019-03-08T11:08:29.977Z,97772.66
2019-03-08T11:09:35.817Z,97782.59
2019-03-08T11:10:41.522Z,97779.38
2019-03-08T11:11:47.354Z,97781.55
2019-03-08T11:12:56.192Z,97780.20
2019-03-08T11:13:59.223Z,97780.20
2019-03-08T11:15:24.091Z,97775.34
2019-03-08T11:16:22.378Z,97784.22
2019-03-08T11:17:31.256Z,97784.73
2019-03-08T11:18:37.125Z,97786.08
2019-03-08T11:19:52.412Z,97788.25
2019-03-08T11:21:07.683Z,97791.44
2019-03-08T11:22:10.708Z,97788.76
2019-03-08T11:23:19.614Z,97791.69
2019-03-08T11:24:28.317Z,97790.86
2019-03-08T11:25:49.128Z,97801.88
2019-03-08T11:27:05.049Z,97798.40
2019-03-08T11:28:08.772Z,97793.25
2019-03-08T11:29:28.095Z,97797.81
2019-03-08T11:30:33.647Z,97797.27
2019-03-08T11:31:52.996Z,97801.30
2019-03-08T11:32:56.012Z,97801.84
2019-03-08T11:34:05.099Z,97801.84
2019-03-08T11:35:13.176Z,97811.73
2019-03-08T11:36:18.700Z,97814.42
2019-03-08T11:37:21.713Z,97806.63
2019-03-08T11:38:30.493Z,97807.42
2019-03-08T11:39:33.516Z,97815.77
2019-03-08T11:40:39.087Z,97811.23
2019-03-08T11:41:58.478Z,97817.40
2019-03-08T11:43:01.502Z,97815.55
2019-03-08T11:44:10.224Z,97804.27
2019-03-08T11:45:13.368Z,97806.95
2019-03-08T11:46:22.316Z,97806.45
2019-03-08T11:47:25.338Z,97809.42
2019-03-08T11:48:28.357Z,97819.11
2019-03-08T11:49:37.331Z,97810.77
2019-03-08T11:50:49.136Z,97815.59
2019-03-08T11:52:00.944Z,97816.94
2019-03-08T11:53:19.391Z,97819.40
2019-03-08T11:54:22.412Z,97817.22
2019-03-08T11:55:37.470Z,97815.08
2019-03-08T11:56:43.385Z,97820.95
2019-03-08T11:57:48.920Z,97822.01
2019-03-08T11:59:06.815Z,97817.47
2019-03-08T12:00:29.140Z,97823.34
2019-03-08T12:01:32.287Z,97824.40
2019-03-08T12:02:41.380Z,97819.79
2019-03-08T12:03:44.398Z,97822.47
2019-03-08T12:04:56.304Z,97822.72
2019-03-08T12:06:01.043Z,97826.45
2019-03-08T12:07:10.220Z,97829.35
2019-03-08T12:08:22.087Z,97824.53
2019-03-08T12:09:25.114Z,97827.72
2019-03-08T12:10:37.124Z,97831.74
2019-03-08T12:11:40.143Z,97834.13
2019-03-08T12:12:59.504Z,97828.48
2019-03-08T12:14:05.058Z,97832.50
2019-03-08T12:15:28.230Z,97836.23
2019-03-08T12:16:37.306Z,97834.89
2019-03-08T12:17:46.074Z,97839.72
2019-03-08T12:18:51.989Z,97842.94
2019-03-08T12:20:06.768Z,97844.28
2019-03-08T12:21:18.978Z,97839.97
2019-03-08T12:22:21.997Z,97848.30
2019-03-08T12:23:27.848Z,97845.33
2019-03-08T12:24:30.868Z,97848.81
2019-03-08T12:25:51.993Z,97844.28
2019-03-08T12:27:11.584Z,97846.96
2019-03-08T12:28:30.976Z,97849.10
2019-03-08T12:29:36.981Z,97846.42
2019-03-08T12:30:45.554Z,97844.28
2019-03-08T12:32:05.423Z,97840.26
2019-03-08T12:33:25.091Z,97842.11
2019-03-08T12:34:28.127Z,97837.79
2019-03-08T12:35:33.661Z,97845.08
2019-03-08T12:36:42.259Z,97848.59